Time;durP1;ratioP1;P1;durP2;ratioP2;P2;SDS_P1;SDS_P2;PMS_P1;PMS_P2;Temp;Humidity;BMP_temperature;BMP_pressure;BME280_temperature;BME280_humidity;BME280_pressure;Samples;Min_cycle;Max_cycle;Signal;HPM_P1;HPM_P2
2023/08/02 00:01:04;;;;;;;;;;;;;;;;;;5015760;28;19935;-76
2023/08/02 00:03:31;;;;;;;;;;;;;;;;;;5007282;28;20422;-76
2023/08/02 00:05:58;;;;;;;;;;;;;;;;;;5001622;28;19960;-76
2023/08/02 00:08:24;;;;;;;;;;;;;;;;;;5027760;28;19927;-76
2023/08/02 00:10:54;;;;;;;;;;;;;;;;;;4992465;28;20374;-77
2023/08/02 00:13:20;;;;;;;;;;;;;;;;;;4994148;28;19927;-76
2023/08/02 00:15:46;;;;;;;;;;;;;;;;;;5028204;28;19929;-77
2023/08/02 00:18:13;;;;;;;;;;;;;;;;;;5029114;28;19960;-80
2023/08/02 00:20:39;;;;;;;;;;;;;;;;;;5028582;28;19976;-80
2023/08/02 00:23:06;;;;;;;;;;;;;;;;;;5013525;28;19925;-79
2023/08/02 00:25:33;;;;;;;;;;;;;;;;;;5022982;28;19929;-80
2023/08/02 00:28:00;;;;;;;;;;;;;;;;;;5024987;28;19932;-80
2023/08/02 00:30:26;;;;;;;;;;;;;;;;;;5023723;28;19925;-80
2023/08/02 00:32:53;;;;;;;;;;;;;;;;;;5019642;28;19925;-80
2023/08/02 00:35:19;;;;;;;;;;;;;;;;;;5037885;28;20277;-79
2023/08/02 00:37:46;;;;;;;;;;;;;;;;;;5031260;28;19921;-77
2023/08/02 00:40:12;;;;;;;;;;;;;;;;;;5017869;28;20255;-76
2023/08/02 00:42:38;;;;;;;;;;;;;;;;;;5023152;28;19921;-76
2023/08/02 00:45:05;;;;;;;;;;;;;;;;;;4998822;28;19921;-76
2023/08/02 00:47:31;;;;;;;;;;;;;;;;;;5015976;28;20384;-77
2023/08/02 00:49:58;;;;;;;;;;;;;;;;;;5012578;28;20366;-79
2023/08/02 00:52:25;;;;;;;;;;;;;;;;;;5015645;28;19925;-76
2023/08/02 00:54:51;;;;;;;;;;;;;;;;;;5015121;28;19921;-77
2023/08/02 00:57:17;;;;;;;;;;;;;;;;;;5014357;28;19972;-76
2023/08/02 00:59:44;;;;;;;;;;;;;;;;;;5026278;28;19921;-77
2023/08/02 01:02:10;;;;;;;;;;;;;;;;;;5001227;28;19929;-76
2023/08/02 01:04:37;;;;;;;;;;;;;;;;;;5010052;28;19932;-78
2023/08/02 01:07:03;;;;;;;;;;;;;;;;;;5029699;28;19921;-76
2023/08/02 01:09:30;;;;;;;;;;;;;;;;;;5017279;28;19964;-76
2023/08/02 01:11:56;;;;;;;;;;;;;;;;;;5025172;28;20429;-75
2023/08/02 01:14:23;;;;;;;;;;;;;;;;;;5024936;28;20393;-76
2023/08/02 01:16:50;;;;;;;;;;;;;;;;;;5015208;28;20437;-76
2023/08/02 01:19:17;;;;;;;;;;;;;;;;;;5010831;28;19967;-75
2023/08/02 01:21:43;;;;;;;;;;;;;;;;;;5017096;28;19920;-75
2023/08/02 01:24:10;;;;;;;;;;;;;;;;;;5013364;28;20368;-76
2023/08/02 01:26:36;;;;;;;;;;;;;;;;;;5015044;28;20012;-77
2023/08/02 01:29:03;;;;;;;;;;;;;;;;;;5014157;28;19925;-75
2023/08/02 01:31:32;;;;;;;;;;;;;;;;;;5005178;28;19940;-77
2023/08/02 01:33:58;;;;;;;;;;;;;;;;;;5024867;28;19925;-77
2023/08/02 01:36:25;;;;;;;;;;;;;;;;;;5014602;28;20019;-74
2023/08/02 01:38:51;;;;;;;;;;;;;;;;;;5021505;28;19975;-75
2023/08/02 01:41:18;;;;;;;;;;;;;;;;;;5014198;28;20405;-77
2023/08/02 01:43:44;;;;;;;;;;;;;;;;;;5023337;28;20374;-75
2023/08/02 01:46:10;;;;;;;;;;;;;;;;;;5002934;28;19967;-76
2023/08/02 01:48:37;;;;;;;;;;;;;;;;;;5016212;28;20425;-76
2023/08/02 01:51:03;;;;;;;;;;;;;;;;;;5023498;28;20366;-73
2023/08/02 01:53:30;;;;;;;;;;;;;;;;;;5013251;28;19987;-76
2023/08/02 01:55:56;;;;;;;;;;;;;;;;;;5017574;28;20392;-75
2023/08/02 01:58:22;;;;;;;;;;;;;;;;;;5017702;28;20007;-76
2023/08/02 02:00:49;;;;;;;;;;;;;;;;;;5006068;28;19924;-77
2023/08/02 02:03:15;;;;;;;;;;;;;;;;;;5020581;28;19971;-78
2023/08/02 02:05:42;;;;;;;;;;;;;;;;;;5010449;28;20286;-76
2023/08/02 02:08:08;;;;;;;;;;;;;;;;;;5018701;28;19931;-77
2023/08/02 02:10:36;;;;;;;0.73;0.70;;;;;;;;;;5018805;28;20206;-75
2023/08/02 02:13:03;;;;;;;;;;;;;;;;;;5014573;28;20291;-75
2023/08/02 02:15:30;;;;;;;;;;;;;;;;;;5014075;28;19948;-75
2023/08/02 02:17:57;;;;;;;0.70;0.60;;;;;;;;;;5013604;28;20257;-77
2023/08/02 02:20:23;;;;;;;;;;;;;;;;;;5025286;28;20315;-75
2023/08/02 02:22:50;;;;;;;0.70;0.70;;;;;;;;;;5023980;28;20573;-76
2023/08/02 02:25:17;;;;;;;0.70;0.70;;;;;;;;;;5037438;28;20440;-78
2023/08/02 02:27:43;;;;;;;;;;;;;;;;;;5018898;28;20309;-75
2023/08/02 02:30:09;;;;;;;;;;;;;;;;;;5032872;28;19968;-74
2023/08/02 02:32:36;;;;;;;;;;;;;;;;;;5019793;28;19925;-76
2023/08/02 02:35:03;;;;;;;;;;;;;;;;;;5027112;28;19921;-74
2023/08/02 02:37:29;;;;;;;;;;;;;;;;;;5027473;28;19981;-76
2023/08/02 02:39:56;;;;;;;;;;;;;;;;;;5022067;28;19971;-75
2023/08/02 02:42:23;;;;;;;;;;;;;;;;;;5025532;28;19929;-76
2023/08/02 02:44:49;;;;;;;;;;;;;;;;;;5028066;28;19964;-77
2023/08/02 02:47:15;;;;;;;;;;;;;;;;;;5029236;28;19925;-77
2023/08/02 02:49:42;;;;;;;;;;;;;;;;;;5041534;28;20004;-77
2023/08/02 02:52:10;;;;;;;0.70;0.50;;;;;;;;;;5019551;28;20411;-77
2023/08/02 02:54:37;;;;;;;0.70;0.50;;;;;;;;;;5010891;28;20413;-75
2023/08/02 02:57:04;;;;;;;0.70;0.50;;;;;;;;;;5040981;28;20420;-76
2023/08/02 02:59:32;;;;;;;0.70;0.50;;;;;;;;;;5022210;28;20502;-76
2023/08/02 03:01:59;;;;;;;0.70;0.60;;;;;;;;;;5023635;28;20489;-76
2023/08/02 03:04:25;;;;;;;0.70;0.50;;;;;;;;;;5036200;28;20415;-76
2023/08/02 03:06:52;;;;;;;0.70;0.50;;;;;;;;;;5019272;28;20407;-76
2023/08/02 03:09:20;;;;;;;0.70;0.50;;;;;;;;;;5042370;28;20488;-77
2023/08/02 03:11:47;;;;;;;0.70;0.50;;;;;;;;;;5039418;28;20450;-79
2023/08/02 03:14:13;;;;;;;0.70;0.50;;;;;;;;;;5025956;28;20403;-76
2023/08/02 03:16:43;;;;;;;0.70;0.67;;;;;;;;;;5035310;28;20465;-76
2023/08/02 03:19:10;;;;;;;;;;;;;;;;;;5013513;28;20285;-75
2023/08/02 03:21:36;;;;;;;;;;;;;;;;;;5032454;28;19948;-77
2023/08/02 03:24:03;;;;;;;;;;;;;;;;;;5032731;28;19921;-76
2023/08/02 03:26:29;;;;;;;;;;;;;;;;;;5048391;28;19940;-77
2023/08/02 03:28:56;;;;;;;;;;;;;;;;;;5032616;28;19925;-76
2023/08/02 03:31:22;;;;;;;;;;;;;;;;;;5035449;28;20298;-75
2023/08/02 03:33:49;;;;;;;;;;;;;;;;;;5021786;28;19932;-75
2023/08/02 03:36:16;;;;;;;;;;;;;;;;;;5031355;28;19952;-75
2023/08/02 03:38:42;;;;;;;;;;;;;;;;;;5039695;28;19928;-77
2023/08/02 03:41:08;;;;;;;;;;;;;;;;;;5021382;28;19964;-78
2023/08/02 03:43:35;;;;;;;;;;;;;;;;;;5021522;28;19991;-74
2023/08/02 03:46:01;;;;;;;;;;;;;;;;;;5024490;28;20363;-77
2023/08/02 03:48:28;;;;;;;;;;;;;;;;;;5023901;28;19921;-77
2023/08/02 03:50:57;;;;;;;;;;;;;;;;;;5023124;28;20390;-76
2023/08/02 03:53:24;;;;;;;;;;;;;;;;;;5032572;28;20385;-73
2023/08/02 03:55:50;;;;;;;;;;;;;;;;;;5018072;28;19932;-76
2023/08/02 03:58:16;;;;;;;;;;;;;;;;;;5032162;28;20016;-77
2023/08/02 04:00:43;;;;;;;;;;;;;;;;;;5020004;28;20301;-77
2023/08/02 04:03:09;;;;;;;;;;;;;;;;;;5013152;28;19927;-76
2023/08/02 04:05:36;;;;;;;;;;;;;;;;;;4998787;28;19921;-77
2023/08/02 04:08:02;;;;;;;;;;;;;;;;;;5031082;28;20012;-76
2023/08/02 04:10:29;;;;;;;;;;;;;;;;;;5024621;28;20087;-75
2023/08/02 04:12:55;;;;;;;;;;;;;;;;;;5017259;28;19975;-75
2023/08/02 04:15:21;;;;;;;;;;;;;;;;;;5025589;28;19961;-74
2023/08/02 04:17:49;;;;;;;;;;;;;;;;;;5018338;28;19971;-76
2023/08/02 04:20:15;;;;;;;;;;;;;;;;;;5025631;28;19925;-77
2023/08/02 04:22:41;;;;;;;;;;;;;;;;;;5000940;28;19988;-76
2023/08/02 04:25:08;;;;;;;;;;;;;;;;;;5030975;28;19959;-75
2023/08/02 04:27:34;;;;;;;;;;;;;;;;;;5020452;28;19931;-74
2023/08/02 04:30:01;;;;;;;;;;;;;;;;;;5022322;28;19928;-77
2023/08/02 04:32:27;;;;;;;;;;;;;;;;;;5025051;28;19944;-75
2023/08/02 04:34:54;;;;;;;;;;;;;;;;;;5018979;28;19925;-78
2023/08/02 04:37:22;;;;;;;;;;;;;;;;;;5014898;28;20359;-75
2023/08/02 04:39:49;;;;;;;;;;;;;;;;;;5028271;28;19928;-75
2023/08/02 04:42:17;;;;;;;0.70;0.60;;;;;;;;;;5026568;28;20203;-75
2023/08/02 04:44:43;;;;;;;0.70;0.70;;;;;;;;;;5016713;28;20429;-76
2023/08/02 04:47:10;;;;;;;0.80;0.70;;;;;;;;;;5026649;28;20522;-76
2023/08/02 04:49:37;;;;;;;0.80;0.80;;;;;;;;;;5022525;28;20505;-76
2023/08/02 04:52:04;;;;;;;0.70;0.70;;;;;;;;;;5015263;28;20789;-77
2023/08/02 04:54:31;;;;;;;0.70;0.70;;;;;;;;;;5030996;28;20444;-76
2023/08/02 04:56:58;;;;;;;0.70;0.60;;;;;;;;;;5023214;28;20904;-78
2023/08/02 04:59:25;;;;;;;;;;;;;;;;;;5026742;28;21140;-77
2023/08/02 05:01:51;;;;;;;;;;;;;;;;;;5016501;28;19943;-76
2023/08/02 05:04:18;;;;;;;;;;;;;;;;;;5015589;28;19925;-76
2023/08/02 05:06:46;;;;;;;;;;;;;;;;;;5018639;28;19991;-79
2023/08/02 05:09:12;;;;;;;;;;;;;;;;;;5000098;28;19932;-78
2023/08/02 05:11:38;;;;;;;;;;;;;;;;;;5009142;28;19925;-77
2023/08/02 05:14:05;;;;;;;;;;;;;;;;;;5015078;28;20016;-77
2023/08/02 05:16:32;;;;;;;;;;;;;;;;;;5015017;28;20023;-76
2023/08/02 05:18:58;;;;;;;;;;;;;;;;;;5028459;28;19932;-76
2023/08/02 05:21:24;;;;;;;;;;;;;;;;;;5024157;28;19925;-77
2023/08/02 05:23:51;;;;;;;;;;;;;;;;;;5017787;28;19931;-77
2023/08/02 05:26:19;;;;;;;;;;;;;;;;;;5022036;28;19920;-75
2023/08/02 05:28:46;;;;;;;;;;;;;;;;;;5025055;28;20392;-77
2023/08/02 05:31:12;;;;;;;;;;;;;;;;;;5027347;28;19956;-76
2023/08/02 05:33:39;;;;;;;;;;;;;;;;;;5030182;28;19932;-77
2023/08/02 05:36:06;;;;;;;;;;;;;;;;;;5029984;28;19926;-78
2023/08/02 05:38:32;;;;;;;;;;;;;;;;;;5009362;28;19948;-77
2023/08/02 05:40:59;;;;;;;;;;;;;;;;;;5027716;28;20345;-79
2023/08/02 05:43:28;;;;;;;0.70;0.70;;;;;;;;;;5013902;28;20268;-80
2023/08/02 05:45:55;;;;;;;0.70;0.70;;;;;;;;;;4994903;28;20442;-78
2023/08/02 05:48:22;;;;;;;0.70;0.60;;;;;;;;;;5024962;28;20429;-79
2023/08/02 05:50:49;;;;;;;0.70;0.70;;;;;;;;;;5022316;28;20471;-80
2023/08/02 05:53:15;;;;;;;0.70;0.70;;;;;;;;;;5014056;28;20479;-79
2023/08/02 05:55:42;;;;;;;0.70;0.60;;;;;;;;;;5005836;28;20447;-80
2023/08/02 05:58:09;;;;;;;0.70;0.60;;;;;;;;;;5010467;28;20472;-80
2023/08/02 06:00:38;;;;;;;0.70;0.70;;;;;;;;;;5026547;28;20451;-80
2023/08/02 06:03:06;;;;;;;1.00;1.00;;;;;;;;;;5020197;28;20425;-81
2023/08/02 06:05:33;;;;;;;0.70;0.70;;;;;;;;;;5021769;28;20995;-81
2023/08/02 06:07:59;;;;;;;1.17;1.10;;;;;;;;;;5007715;28;20504;-79
2023/08/02 06:10:26;;;;;;;1.07;1.00;;;;;;;;;;5012798;28;20465;-79
2023/08/02 06:12:53;;;;;;;0.70;0.70;;;;;;;;;;5018220;28;20430;-76
2023/08/02 06:15:22;;;;;;;0.70;0.60;;;;;;;;;;5012406;28;20535;-76
2023/08/02 06:17:50;;;;;;;0.70;0.60;;;;;;;;;;5018816;28;20470;-75
2023/08/02 06:20:17;;;;;;;0.80;0.80;;;;;;;;;;5005829;28;20435;-76
2023/08/02 06:22:43;;;;;;;1.23;1.13;;;;;;;;;;5012584;28;20472;-77
2023/08/02 06:25:10;;;;;;;0.70;0.70;;;;;;;;;;5025113;28;20444;-76
2023/08/02 06:27:37;;;;;;;0.80;0.80;;;;;;;;;;5003953;28;20937;-77
2023/08/02 06:30:04;;;;;;;0.80;0.80;;;;;;;;;;5008828;28;20472;-76
2023/08/02 06:32:32;;;;;;;0.70;0.70;;;;;;;;;;5020565;28;20435;-75
2023/08/02 06:35:00;;;;;;;0.70;0.70;;;;;;;;;;5012551;28;20462;-76
2023/08/02 06:37:27;;;;;;;0.70;0.60;;;;;;;;;;5024895;28;20481;-75
2023/08/02 06:39:53;;;;;;;0.70;0.60;;;;;;;;;;5011618;28;20445;-74
2023/08/02 06:42:20;;;;;;;0.70;0.60;;;;;;;;;;5026441;28;20436;-76
2023/08/02 06:44:47;;;;;;;0.60;0.60;;;;;;;;;;5025180;28;20431;-76
2023/08/02 06:47:13;;;;;;;0.70;0.50;;;;;;;;;;5012690;28;20925;-76
2023/08/02 06:49:40;;;;;;;1.90;1.10;;;;;;;;;;5013346;28;20508;-76
2023/08/02 06:52:09;;;;;;;0.70;0.50;;;;;;;;;;4997916;28;20410;-78
2023/08/02 06:54:36;;;;;;;0.70;0.50;;;;;;;;;;5012055;28;20409;-78
2023/08/02 06:57:03;;;;;;;0.70;0.50;;;;;;;;;;5012663;28;20426;-74
2023/08/02 06:59:29;;;;;;;0.70;0.50;;;;;;;;;;5025896;28;20473;-76
2023/08/02 07:01:56;;;;;;;0.80;0.60;;;;;;;;;;5002633;28;20811;-75
2023/08/02 07:04:23;;;;;;;0.80;0.70;;;;;;;;;;5014059;28;20751;-76
2023/08/02 07:06:50;;;;;;;0.80;0.60;;;;;;;;;;5014826;28;20405;-76
2023/08/02 07:09:19;;;;;;;0.70;0.50;;;;;;;;;;5011990;28;20408;-75
2023/08/02 07:11:46;;;;;;;0.70;0.50;;;;;;;;;;4996433;28;20756;-75
2023/08/02 07:14:12;;;;;;;0.90;0.60;;;;;;;;;;5011014;28;20414;-75
2023/08/02 07:16:39;;;;;;;0.80;0.80;;;;;;;;;;5013498;28;20462;-76
2023/08/02 07:19:06;;;;;;;0.70;0.70;;;;;;;;;;4997366;28;20240;-77
2023/08/02 07:21:33;;;;;;;0.73;0.73;;;;;;;;;;5010384;28;20449;-76
2023/08/02 07:24:00;;;;;;;0.70;0.60;;;;;;;;;;5028039;28;20460;-76
2023/08/02 07:26:29;;;;;;;0.70;0.67;;;;;;;;;;5014565;28;20488;-76
2023/08/02 07:28:56;;;;;;;0.70;0.60;;;;;;;;;;5014270;28;20432;-75
2023/08/02 07:31:23;;;;;;;0.70;0.70;;;;;;;;;;5013071;28;20469;-74
2023/08/02 07:33:50;;;;;;;0.70;0.60;;;;;;;;;;5025198;28;20540;-76
2023/08/02 07:36:18;;;;;;;0.70;0.70;;;;;;;;;;5014689;28;20539;-76
2023/08/02 07:38:45;;;;;;;1.07;0.97;;;;;;;;;;5013783;28;20490;-75
2023/08/02 07:41:12;;;;;;;0.63;0.60;;;;;;;;;;5012178;28;21026;-76
2023/08/02 07:43:40;;;;;;;0.70;0.70;;;;;;;;;;5027021;28;20928;-77
2023/08/02 07:46:14;;;;;;;0.87;0.87;;;;;;;;;;5023950;28;20461;-74
2023/08/02 07:48:41;;;;;;;1.20;1.10;;;;;;;;;;5024516;28;20524;-77
2023/08/02 07:51:07;;;;;;;0.70;0.70;;;;;;;;;;4999125;28;20537;-76
2023/08/02 07:53:34;;;;;;;0.70;0.60;;;;;;;;;;5026519;28;20828;-77
2023/08/02 07:56:03;;;;;;;0.73;0.73;;;;;;;;;;5023511;28;20487;-76
2023/08/02 07:58:30;;;;;;;0.97;0.97;;;;;;;;;;5012029;28;20530;-76
2023/08/02 08:01:03;;;;;;;0.70;0.60;;;;;;;;;;5007263;28;20450;-76
2023/08/02 08:03:29;;;;;;;;;;;;;;;;;;5013961;28;20632;-75
2023/08/02 08:05:56;;;;;;;0.70;0.60;;;;;;;;;;5002518;28;20563;-78
2023/08/02 08:08:23;;;;;;;0.70;0.70;;;;;;;;;;5013835;28;20453;-76
2023/08/02 08:10:49;;;;;;;;;;;;;;;;;;5028415;28;20273;-76
2023/08/02 08:13:16;;;;;;;2.00;1.37;;;;;;;;;;5013242;28;20214;-76
2023/08/02 08:15:43;;;;;;;1.00;0.90;;;;;;;;;;5019382;28;20405;-77
2023/08/02 08:18:10;;;;;;;;;;;;;;;;;;5013451;28;20037;-76
2023/08/02 08:20:39;;;;;;;0.80;0.80;;;;;;;;;;4996508;28;20240;-79
2023/08/02 08:23:06;;;;;;;0.70;0.60;;;;;;;;;;5012815;28;20507;-78
2023/08/02 08:25:32;;;;;;;;;;;;;;;;;;5026063;28;20351;-79
2023/08/02 08:27:59;;;;;;;;;;;;;;;;;;5012639;28;19925;-80
2023/08/02 08:30:25;;;;;;;;;;;;;;;;;;4999990;28;19925;-76
2023/08/02 08:32:51;;;;;;;;;;;;;;;;;;5013383;28;20405;-81
2023/08/02 08:35:18;;;;;;;;;;;;;;;;;;5012819;28;19921;-79
2023/08/02 08:37:48;;;;;;;;;;;;;;;;;;5014727;28;19921;-83
2023/08/02 08:40:15;;;;;;;;;;;;;;;;;;5013271;28;20004;-80
2023/08/02 08:42:41;;;;;;;;;;;;;;;;;;5028368;28;19943;-84
2023/08/02 08:45:08;;;;;;;;;;;;;;;;;;5006293;28;19921;-85
2023/08/02 08:47:35;;;;;;;;;;;;;;;;;;5026185;28;19925;-78
2023/08/02 08:50:04;;;;;;;;;;;;;;;;;;5016105;28;19944;-84
2023/08/02 08:52:31;;;;;;;;;;;;;;;;;;5024680;28;19940;-88
2023/08/02 08:54:57;;;;;;;;;;;;;;;;;;5014916;28;20033;-86
2023/08/02 08:57:23;;;;;;;;;;;;;;;;;;5009716;28;19925;-83
2023/08/02 08:59:51;;;;;;;;;;;;;;;;;;5026607;28;19921;-81
2023/08/02 09:02:17;;;;;;;;;;;;;;;;;;5002430;28;19921;-84
2023/08/02 09:04:43;;;;;;;;;;;;;;;;;;5023539;28;20016;-79
2023/08/02 09:07:10;;;;;;;;;;;;;;;;;;5014951;28;20362;-80
2023/08/02 09:09:36;;;;;;;;;;;;;;;;;;5030990;28;19921;-79
2023/08/02 09:12:03;;;;;;;;;;;;;;;;;;5015337;28;19924;-78
2023/08/02 09:14:29;;;;;;;;;;;;;;;;;;4998143;28;19987;-80
2023/08/02 09:16:59;;;;;;;;;;;;;;;;;;5010054;28;19959;-79
2023/08/02 09:19:27;;;;;;;;;;;;;;;;;;5019623;28;19944;-77
2023/08/02 09:21:53;;;;;;;;;;;;;;;;;;5025362;28;20341;-76
2023/08/02 09:24:20;;;;;;;;;;;;;;;;;;5025094;28;19924;-76
2023/08/02 09:26:47;;;;;;;;;;;;;;;;;;5005591;28;19975;-74
2023/08/02 09:29:13;;;;;;;;;;;;;;;;;;5012983;28;19964;-76
2023/08/02 09:31:40;;;;;;;;;;;;;;;;;;5023731;28;19951;-76
2023/08/02 09:34:06;;;;;;;;;;;;;;;;;;5012642;28;20424;-77
2023/08/02 09:36:33;;;;;;;;;;;;;;;;;;5027412;28;19921;-78
2023/08/02 09:39:03;;;;;;;;;;;;;;;;;;5014475;28;20409;-78
2023/08/02 09:41:29;;;;;;;;;;;;;;;;;;5016163;28;19975;-78
2023/08/02 09:43:59;;;;;;;;;;;;;;;;;;5004499;28;19928;-78
2023/08/02 09:46:25;;;;;;;;;;;;;;;;;;4996875;28;20008;-80
2023/08/02 09:48:52;;;;;;;;;;;;;;;;;;5021637;28;19921;-79
2023/08/02 09:51:19;;;;;;;;;;;;;;;;;;5023123;28;20379;-74
2023/08/02 09:53:45;;;;;;;;;;;;;;;;;;5004937;28;19980;-80
2023/08/02 09:56:12;;;;;;;;;;;;;;;;;;5023380;28;19940;-81
2023/08/02 09:58:39;;;;;;;;;;;;;;;;;;5014633;28;19928;-79
2023/08/02 10:01:05;;;;;;;;;;;;;;;;;;5013042;28;20293;-79
2023/08/02 10:03:33;;;;;;;;;;;;;;;;;;5013442;28;20029;-79
2023/08/02 10:06:01;;;;;;;;;;;;;;;;;;5013401;28;20012;-80
2023/08/02 10:08:28;;;;;;;;;;;;;;;;;;5025751;28;20361;-78
2023/08/02 10:10:55;;;;;;;;;;;;;;;;;;5008011;28;19921;-79
2023/08/02 10:13:21;;;;;;;;;;;;;;;;;;5020242;28;20374;-79
2023/08/02 10:15:48;;;;;;;;;;;;;;;;;;5012694;28;19955;-79
2023/08/02 10:18:14;;;;;;;;;;;;;;;;;;4998030;28;20293;-77
2023/08/02 10:20:41;;;;;;;;;;;;;;;;;;5023919;28;19925;-74
2023/08/02 10:23:07;;;;;;;;;;;;;;;;;;5015427;28;19928;-77
2023/08/02 10:25:35;;;;;;;;;;;;;;;;;;5018242;28;19979;-77
2023/08/02 10:28:01;;;;;;;;;;;;;;;;;;5018500;28;19925;-78
2023/08/02 10:30:28;;;;;;;;;;;;;;;;;;5017044;28;19925;-80
2023/08/02 10:32:55;;;;;;;;;;;;;;;;;;5027384;28;20321;-79
2023/08/02 10:35:21;;;;;;;;;;;;;;;;;;4998835;28;19925;-78
2023/08/02 10:37:47;;;;;;;;;;;;;;;;;;5002209;28;20390;-81
2023/08/02 10:40:14;;;;;;;;;;;;;;;;;;5017959;28;19921;-80
2023/08/02 10:42:40;;;;;;;;;;;;;;;;;;5012371;28;19933;-80
2023/08/02 10:45:07;;;;;;;;;;;;;;;;;;5000872;28;19921;-82
2023/08/02 10:47:33;;;;;;;;;;;;;;;;;;5028353;28;20016;-81
2023/08/02 10:49:59;;;;;;;;;;;;;;;;;;5029953;28;19920;-80
2023/08/02 10:52:26;;;;;;;;;;;;;;;;;;5024634;28;19921;-81
2023/08/02 10:54:52;;;;;;;;;;;;;;;;;;5023773;28;19929;-73
2023/08/02 10:57:19;;;;;;;;;;;;;;;;;;5027924;28;20008;-80
2023/08/02 10:59:45;;;;;;;;;;;;;;;;;;5030723;28;19925;-76
2023/08/02 11:02:12;;;;;;;;;;;;;;;;;;5026039;28;19921;-77
2023/08/02 11:04:39;;;;;;;;;;;;;;;;;;5008346;28;19948;-79
2023/08/02 11:07:06;;;;;;;;;;;;;;;;;;5023434;28;19929;-78
2023/08/02 11:09:33;;;;;;;;;;;;;;;;;;5028990;28;20344;-78
2023/08/02 11:11:59;;;;;;;;;;;;;;;;;;5029020;28;19925;-77
2023/08/02 11:14:27;;;;;;;;;;;;;;;;;;5026181;28;19921;-79
2023/08/02 11:16:53;;;;;;;;;;;;;;;;;;5023294;28;19945;-76
2023/08/02 11:19:20;;;;;;;;;;;;;;;;;;5029887;28;19925;-79
2023/08/02 11:21:47;;;;;;;;;;;;;;;;;;5026536;28;20374;-79
2023/08/02 11:24:14;;;;;;;;;;;;;;;;;;5016053;28;19930;-78
2023/08/02 11:26:40;;;;;;;;;;;;;;;;;;5015826;28;19964;-77
2023/08/02 11:29:10;;;;;;;;;;;;;;;;;;5025716;28;19992;-79
2023/08/02 11:31:37;;;;;;;;;;;;;;;;;;5022947;28;19928;-78
2023/08/02 11:34:15;;;;;;;;;;;;;;;;;;5025747;28;19925;-78
2023/08/02 11:36:41;;;;;;;;;;;;;;;;;;5024253;28;19925;-79
2023/08/02 11:39:09;;;;;;;;;;;;;;;;;;5028776;28;19929;-79
2023/08/02 11:41:36;;;;;;;;;;;;;;;;;;5010676;28;20004;-79
2023/08/02 11:44:02;;;;;;;;;;;;;;;;;;5014649;28;19949;-80
2023/08/02 11:46:28;;;;;;;;;;;;;;;;;;5022465;28;19928;-78
2023/08/02 11:48:59;;;;;;;;;;;;;;;;;;5016336;28;20020;-77
2023/08/02 11:51:26;;;;;;;;;;;;;;;;;;5000803;28;19925;-78
2023/08/02 11:53:54;;;;;;;;;;;;;;;;;;5014924;28;20016;-76
2023/08/02 11:56:21;;;;;;;;;;;;;;;;;;5025363;28;20011;-77
2023/08/02 11:58:47;;;;;;;;;;;;;;;;;;5013000;28;19928;-78
2023/08/02 12:01:14;;;;;;;;;;;;;;;;;;5011433;28;19928;-77
2023/08/02 12:03:41;;;;;;;;;;;;;;;;;;5026410;28;19928;-77
2023/08/02 12:06:08;;;;;;;;;;;;;;;;;;5027039;28;19921;-77
2023/08/02 12:08:35;;;;;;;;;;;;;;;;;;5023708;28;19925;-76
2023/08/02 12:11:01;;;;;;;;;;;;;;;;;;5014310;28;20027;-84
2023/08/02 12:13:27;;;;;;;;;;;;;;;;;;5014139;28;19921;-85
2023/08/02 12:15:54;;;;;;;;;;;;;;;;;;5027265;28;20358;-87
2023/08/02 12:18:20;;;;;;;;;;;;;;;;;;5028296;28;20525;-83
2023/08/02 12:20:48;;;;;;;;;;;;;;;;;;5027322;28;19921;-85
2023/08/02 12:23:14;;;;;;;;;;;;;;;;;;5028083;28;19975;-83
2023/08/02 12:25:40;;;;;;;;;;;;;;;;;;5026159;28;19940;-81
2023/08/02 12:28:08;;;;;;;;;;;;;;;;;;5028321;28;19948;-83
2023/08/02 12:30:35;;;;;;;;;;;;;;;;;;5018797;28;20283;-84
2023/08/02 12:33:01;;;;;;;;;;;;;;;;;;5025724;28;20275;-81
2023/08/02 12:35:27;;;;;;;;;;;;;;;;;;5027945;28;20311;-81
2023/08/02 12:38:18;;;;;;;;;;;;;;;;;;5015356;28;19932;-81
2023/08/02 12:40:45;;;;;;;;;;;;;;;;;;5028586;28;19922;-79
2023/08/02 12:43:13;;;;;;;0.70;0.60;;;;;;;;;;5027118;28;20372;-83
2023/08/02 12:45:39;;;;;;;;;;;;;;;;;;5007561;28;20777;-80
2023/08/02 12:48:06;;;;;;;0.70;0.50;;;;;;;;;;5014378;28;20416;-83
2023/08/02 12:50:33;;;;;;;0.80;0.60;;;;;;;;;;4996213;28;20686;-80
2023/08/02 12:53:00;;;;;;;0.70;0.50;;;;;;;;;;5013979;28;20507;-80
2023/08/02 12:55:26;;;;;;;0.70;0.60;;;;;;;;;;5005998;28;20485;-78
2023/08/02 12:57:53;;;;;;;0.90;0.60;;;;;;;;;;5024730;28;20434;-80
2023/08/02 13:00:20;;;;;;;;;;;;;;;;;;4996432;28;20372;-80
2023/08/02 13:02:48;;;;;;;0.70;0.63;;;;;;;;;;5013427;28;20208;-80
2023/08/02 13:05:15;;;;;;;0.70;0.70;;;;;;;;;;5013832;28;20441;-81
2023/08/02 13:07:42;;;;;;;0.70;0.60;;;;;;;;;;5023270;28;20467;-81
2023/08/02 13:10:11;;;;;;;0.70;0.60;;;;;;;;;;5026473;28;20429;-80
2023/08/02 13:12:38;;;;;;;1.00;0.80;;;;;;;;;;5025599;28;20445;-80
2023/08/02 13:15:05;;;;;;;0.70;0.60;;;;;;;;;;5023215;28;20960;-78
2023/08/02 13:17:34;;;;;;;0.70;0.60;;;;;;;;;;5027747;28;20934;-79
2023/08/02 13:20:04;;;;;;;0.70;0.63;;;;;;;;;;5013264;28;20475;-79
2023/08/02 13:22:31;;;;;;;0.70;0.70;;;;;;;;;;5023492;28;20515;-80
2023/08/02 13:25:00;;;;;;;0.70;0.60;;;;;;;;;;5025395;28;20421;-80
2023/08/02 13:27:27;;;;;;;0.70;0.70;;;;;;;;;;5009969;28;20940;-81
2023/08/02 13:29:53;;;;;;;0.70;0.67;;;;;;;;;;5011240;28;20524;-80
2023/08/02 13:32:22;;;;;;;0.70;0.60;;;;;;;;;;5009602;28;20430;-80
2023/08/02 13:34:49;;;;;;;0.70;0.60;;;;;;;;;;5010664;28;20432;-81
2023/08/02 13:37:17;;;;;;;0.70;0.60;;;;;;;;;;5009459;28;20560;-80
2023/08/02 13:39:43;;;;;;;;;;;;;;;;;;5022162;28;20296;-76
2023/08/02 13:42:10;;;;;;;0.70;0.60;;;;;;;;;;5007813;28;20685;-78
2023/08/02 13:44:36;;;;;;;;;;;;;;;;;;5019299;28;20347;-78
2023/08/02 13:47:04;;;;;;;0.70;0.60;;;;;;;;;;4996844;28;20270;-78
2023/08/02 13:49:32;;;;;;;0.70;0.60;;;;;;;;;;5006964;28;20488;-80
2023/08/02 13:51:59;;;;;;;;;;;;;;;;;;5021972;28;20276;-80
2023/08/02 13:54:25;;;;;;;;;;;;;;;;;;5005171;28;20432;-80
2023/08/02 13:56:53;;;;;;;0.70;0.60;;;;;;;;;;5012741;28;20510;-79
2023/08/02 13:59:20;;;;;;;2.50;1.27;;;;;;;;;;5029087;28;20453;-81
2023/08/02 14:01:46;;;;;;;;;;;;;;;;;;5013938;28;20354;-79
2023/08/02 14:04:13;;;;;;;0.70;0.60;;;;;;;;;;5017695;28;20296;-78
2023/08/02 14:06:39;;;;;;;0.70;0.50;;;;;;;;;;5024872;28;20979;-78
2023/08/02 14:09:07;;;;;;;0.70;0.50;;;;;;;;;;5024517;28;21018;-75
2023/08/02 14:11:33;;;;;;;0.70;0.50;;;;;;;;;;5008843;28;20421;-78
2023/08/02 14:14:01;;;;;;;0.70;0.50;;;;;;;;;;5010844;28;20802;-79
2023/08/02 14:16:28;;;;;;;0.70;0.50;;;;;;;;;;5007075;28;20456;-80
2023/08/02 14:18:55;;;;;;;0.70;0.50;;;;;;;;;;5024309;28;20624;-78
2023/08/02 14:21:22;;;;;;;0.70;0.50;;;;;;;;;;5026121;28;20444;-79
2023/08/02 14:23:49;;;;;;;0.70;0.50;;;;;;;;;;5021969;28;20549;-81
2023/08/02 14:26:15;;;;;;;;;;;;;;;;;;5007527;28;20292;-81
2023/08/02 14:28:42;;;;;;;0.73;0.57;;;;;;;;;;5020045;28;20526;-76
2023/08/02 14:31:10;;;;;;;0.70;0.60;;;;;;;;;;5013879;28;20713;-80
2023/08/02 14:33:36;;;;;;;0.70;0.50;;;;;;;;;;5019539;28;20437;-81
2023/08/02 14:36:03;;;;;;;0.70;0.60;;;;;;;;;;5013005;28;20527;-79
2023/08/02 14:38:32;;;;;;;0.70;0.50;;;;;;;;;;5018799;28;20455;-80
2023/08/02 14:40:58;;;;;;;0.70;0.60;;;;;;;;;;5003978;28;20512;-81
2023/08/02 14:43:26;;;;;;;0.70;0.50;;;;;;;;;;5024949;28;20981;-79
2023/08/02 14:45:54;;;;;;;0.70;0.60;;;;;;;;;;5014164;28;20444;-80
2023/08/02 14:48:22;;;;;;;0.70;0.50;;;;;;;;;;5023463;28;20466;-81
2023/08/02 14:50:48;;;;;;;0.70;0.50;;;;;;;;;;4997193;28;20802;-80
2023/08/02 14:53:15;;;;;;;0.70;0.60;;;;;;;;;;5022164;28;20946;-79
2023/08/02 14:55:42;;;;;;;0.70;0.50;;;;;;;;;;5012306;28;20430;-79
2023/08/02 14:58:09;;;;;;;;;;;;;;;;;;4998417;28;20453;-80
2023/08/02 15:00:38;;;;;;;;;;;;;;;;;;5008278;28;20011;-79
2023/08/02 15:03:05;;;;;;;0.70;0.40;;;;;;;;;;5022133;28;20498;-80
2023/08/02 15:05:33;;;;;;;0.70;0.50;;;;;;;;;;5015740;28;20473;-78
2023/08/02 15:08:00;;;;;;;0.70;0.50;;;;;;;;;;5015735;28;20231;-79
2023/08/02 15:10:27;;;;;;;1.63;1.03;;;;;;;;;;5017199;28;20787;-80
2023/08/02 15:12:54;;;;;;;0.70;0.60;;;;;;;;;;5027538;28;20953;-76
2023/08/02 15:15:21;;;;;;;0.70;0.60;;;;;;;;;;5014464;28;20434;-81
2023/08/02 15:17:47;;;;;;;0.70;0.50;;;;;;;;;;5016876;28;20986;-80
2023/08/02 15:20:14;;;;;;;0.70;0.50;;;;;;;;;;5017103;28;20515;-80
2023/08/02 15:22:42;;;;;;;0.70;0.60;;;;;;;;;;5015352;28;21007;-78
2023/08/02 15:25:09;;;;;;;0.70;0.57;;;;;;;;;;5000105;28;20198;-79
2023/08/02 15:27:36;;;;;;;;;;;;;;;;;;5011602;28;20338;-81
2023/08/02 15:30:03;;;;;;;0.70;0.50;;;;;;;;;;5011470;28;20439;-81
2023/08/02 15:32:29;;;;;;;;;;;;;;;;;;5014444;28;20284;-81
2023/08/02 15:34:56;;;;;;;;;;;;;;;;;;5029156;28;19936;-80
2023/08/02 15:37:22;;;;;;;;;;;;;;;;;;5017333;28;20362;-77
2023/08/02 15:39:50;;;;;;;1.53;1.43;;;;;;;;;;5015552;28;20200;-79
2023/08/02 15:42:23;;;;;;;0.70;0.60;;;;;;;;;;5015460;28;20443;-79
2023/08/02 15:44:50;;;;;;;0.70;0.50;;;;;;;;;;5019567;28;20421;-80
2023/08/02 15:47:17;;;;;;;0.70;0.50;;;;;;;;;;5032867;28;20441;-77
2023/08/02 15:49:43;;;;;;;0.70;0.50;;;;;;;;;;5035487;28;20438;-77
2023/08/02 15:52:10;;;;;;;0.80;0.60;;;;;;;;;;5033371;28;20514;-79